Time;durP1;ratioP1;P1;durP2;ratioP2;P2;SDS_P1;SDS_P2;PMS_P1;PMS_P2;Temp;Humidity;BMP_temperature;BMP_pressure;BME280_temperature;BME280_humidity;BME280_pressure;Samples;Min_cycle;Max_cycle;Signal;HPM_P1;HPM_P2
2023/05/17 00:01:56;;;;;;;;;;;;;;;;;;5155883;27;1694;-62
2023/05/17 00:04:23;;;;;;;;;;;;;;;;;;5156003;27;1731;-62
2023/05/17 00:06:50;;;;;;;;;;;;;;;;;;5155731;27;1680;-62
2023/05/17 00:09:18;;;;;;;;;;;;;;;;;;5155866;27;1276;-52
2023/05/17 00:11:45;;;;;;;;;;;;;;;;;;5155470;27;2034;-58
2023/05/17 00:14:12;;;;;;;;;;;;;;;;;;5155576;27;1988;-51
2023/05/17 00:16:39;;;;;;;;;;;;;;;;;;5155885;27;1885;-48
2023/05/17 00:19:08;;;;;;;;;;;;;;;;;;5155881;27;1910;-51
2023/05/17 00:21:36;;;;;;;;;;;;;;;;;;5155173;27;1770;-51
2023/05/17 00:24:04;;;;;;;;;;;;;;;;;;5155487;27;2092;-50
2023/05/17 00:26:32;;;;;;;;;;;;;;;;;;5155267;27;1843;-49
2023/05/17 00:29:00;;;;;;;;;;;;;;;;;;5155193;27;1314;-52
2023/05/17 00:31:27;;;;;;;;;;;;;;;;;;5155146;27;2114;-62
2023/05/17 00:33:54;;;;;;;;;;;;;;;;;;5155214;27;2001;-51
2023/05/17 00:36:21;;;;;;;;;;;;;;;;;;5155150;27;1848;-49
2023/05/17 00:38:49;;;;;;;;;;;;;;;;;;5155098;27;1827;-49
2023/05/17 00:41:16;;;;;;;;;;;;;;;;;;5170411;27;2015;-53
2023/05/17 00:43:44;;;;;;;;;;;;;;;;;;5175980;27;1851;-52
2023/05/17 00:46:12;;;;;;;;;;;;;;;;;;5176081;27;1592;-55
2023/05/17 00:48:39;;;;;;;;;;;;;;;;;;5175811;27;1990;-58
2023/05/17 00:51:06;;;;;;;;;;;;;;;;;;5156786;27;1969;-65
2023/05/17 00:53:35;;;;;;;;;;;;;;;;;;5175329;27;1738;-49
2023/05/17 00:56:03;;;;;;;;;;;;;;;;;;5175524;27;1472;-51
2023/05/17 00:58:32;;;;;;;;;;;;;;;;;;5158496;27;1863;-50
2023/05/17 01:01:00;;;;;;;;;;;;;;;;;;5135896;27;2134;-53
2023/05/17 01:03:27;;;;;;;;;;;;;;;;;;5154600;27;1671;-59
2023/05/17 01:05:55;;;;;;;;;;;;;;;;;;5154313;27;1620;-51
2023/05/17 01:08:22;;;;;;;;;;;;;;;;;;5154481;27;1664;-53
2023/05/17 01:10:58;;;;;;;;;;;;;;;;;;5154539;27;1851;-51
2023/05/17 01:13:32;;;;;;;;;;;;;;;;;;5154560;27;1480;-52
2023/05/17 01:16:20;;;;;;;;;;;;;;;;;;5135614;27;2114;-49
2023/05/17 01:18:51;;;;;;;;;;;;;;;;;;5154228;27;1902;-52
2023/05/17 01:21:34;;;;;;;;;;;;;;;;;;5135482;27;2392;-52
2023/05/17 01:24:10;;;;;;;;;;;;;;;;;;5154273;27;2112;-51
2023/05/17 01:26:42;;;;;;;;;;;;;;;;;;5135236;27;1604;-50
2023/05/17 01:29:11;;;;;;;;;;;;;;;;;;5135423;27;1609;-49
2023/05/17 01:31:39;;;;;;;;;;;;;;;;;;5153951;27;2280;-51
2023/05/17 01:34:09;;;;;;;;;;;;;;;;;;5134697;27;1618;-49
2023/05/17 01:36:37;;;;;;;;;;;;;;;;;;5135320;27;1657;-48
2023/05/17 01:39:04;;;;;;;;;;;;;;;;;;5153871;27;1991;-61
2023/05/17 01:41:36;;;;;;;;;;;;;;;;;;5153650;27;1854;-47
2023/05/17 01:44:04;;;;;;;;;;;;;;;;;;5153763;27;1892;-53
2023/05/17 01:46:34;;;;;;;;;;;;;;;;;;5153844;27;1501;-56
2023/05/17 01:49:07;;;;;;;;;;;;;;;;;;5153559;27;1307;-52
2023/05/17 01:51:38;;;;;;;;;;;;;;;;;;5134907;27;1964;-50
2023/05/17 01:54:10;;;;;;;;;;;;;;;;;;5153769;27;2045;-50
2023/05/17 01:56:41;;;;;;;;;;;;;;;;;;5135447;27;1864;-51
2023/05/17 01:59:10;;;;;;;;;;;;;;;;;;5174434;27;1970;-50
2023/05/17 02:01:38;;;;;;;;;;;;;;;;;;5174377;27;1868;-50
2023/05/17 02:04:05;;;;;;;;;;;;;;;;;;5174447;27;1848;-50
2023/05/17 02:06:32;;;;;;;;;;;;;;;;;;5174079;27;1272;-51
2023/05/17 02:09:01;;;;;;;;;;;;;;;;;;5154785;27;2098;-48
2023/05/17 02:11:29;;;;;;;;;;;;;;;;;;5154763;27;1931;-62
2023/05/17 02:13:57;;;;;;;;;;;;;;;;;;5155397;27;1884;-60
2023/05/17 02:16:25;;;;;;;;;;;;;;;;;;5155195;27;2172;-53
2023/05/17 02:18:52;;;;;;;;;;;;;;;;;;5155145;27;2068;-51
2023/05/17 02:21:19;;;;;;;;;;;;;;;;;;5155555;27;1844;-53
2023/05/17 02:23:46;;;;;;;;;;;;;;;;;;5174374;27;1887;-58
2023/05/17 02:26:14;;;;;;;;;;;;;;;;;;5173828;27;1862;-53
2023/05/17 02:28:43;;;;;;;;;;;;;;;;;;5163578;27;1598;-53
2023/05/17 02:31:10;;;;;;;;;;;;;;;;;;5153158;27;1964;-67
2023/05/17 02:33:37;;;;;;;;;;;;;;;;;;5152952;27;1909;-56
2023/05/17 02:36:04;;;;;;;;;;;;;;;;;;5152915;27;2303;-62
2023/05/17 02:38:31;;;;;;;;;;;;;;;;;;5152703;27;1846;-59
2023/05/17 02:41:02;;;;;;;;;;;;;;;;;;5153019;27;2307;-57
2023/05/17 02:43:30;;;;;;;;;;;;;;;;;;5152892;27;2114;-53
2023/05/17 02:45:58;;;;;;;;;;;;;;;;;;5133955;27;1851;-59
2023/05/17 02:48:25;;;;;;;;;;;;;;;;;;5134055;27;1638;-58
2023/05/17 02:50:52;;;;;;;;;;;;;;;;;;5152424;27;1676;-53
2023/05/17 02:53:19;;;;;;;;;;;;;;;;;;5152903;27;1913;-55
2023/05/17 02:55:47;;;;;;;;;;;;;;;;;;5134274;27;1995;-57
2023/05/17 02:58:14;;;;;;;;;;;;;;;;;;5134170;27;1579;-60
2023/05/17 03:00:45;;;;;;;;;;;;;;;;;;5152246;27;1687;-56
2023/05/17 03:03:13;;;;;;;;;;;;;;;;;;5133972;27;2066;-47
2023/05/17 03:05:41;;;;;;;;;;;;;;;;;;5134008;27;2152;-49
2023/05/17 03:08:08;;;;;;;;;;;;;;;;;;5133915;27;1685;-51
2023/05/17 03:10:35;;;;;;;;;;;;;;;;;;5134071;27;1391;-55
2023/05/17 03:13:03;;;;;;;;;;;;;;;;;;5133886;27;1971;-47
2023/05/17 03:15:34;;;;;;;;;;;;;;;;;;5134148;27;1507;-48
2023/05/17 03:18:03;;;;;;;;;;;;;;;;;;5152483;27;1947;-49
2023/05/17 03:20:30;;;;;;;;;;;;;;;;;;5152544;27;1505;-48
2023/05/17 03:22:57;;;;;;;;;;;;;;;;;;5152367;27;1594;-63
2023/05/17 03:25:25;;;;;;;;;;;;;;;;;;5151766;27;2099;-47
2023/05/17 03:27:53;;;;;;;;;;;;;;;;;;5152475;27;1520;-47
2023/05/17 03:30:20;;;;;;;;;;;;;;;;;;5134115;27;1931;-48
2023/05/17 03:32:48;;;;;;;;;;;;;;;;;;5133647;27;1915;-47
2023/05/17 03:35:15;;;;;;;;;;;;;;;;;;5152404;27;1881;-50
2023/05/17 03:37:47;;;;;;;;;;;;;;;;;;5133884;27;1721;-47
2023/05/17 03:40:14;;;;;;;;;;;;;;;;;;5152213;27;1778;-47
2023/05/17 03:42:42;;;;;;;;;;;;;;;;;;5150954;27;1623;-56
2023/05/17 03:45:09;;;;;;;;;;;;;;;;;;5133698;27;1582;-54
2023/05/17 03:47:36;;;;;;;;;;;;;;;;;;5156274;27;1853;-52
2023/05/17 03:50:05;;;;;;;;;;;;;;;;;;5172934;27;1355;-54
2023/05/17 03:52:32;;;;;;;;;;;;;;;;;;5172844;27;2032;-58
2023/05/17 03:54:59;;;;;;;;;;;;;;;;;;5172958;27;1891;-52
2023/05/17 03:57:27;;;;;;;;;;;;;;;;;;5174743;27;1808;-49
2023/05/17 03:59:55;;;;;;;;;;;;;;;;;;5158571;27;2011;-50
2023/05/17 04:02:22;;;;;;;;;;;;;;;;;;5177124;27;1574;-47
2023/05/17 04:04:50;;;;;;;;;;;;;;;;;;5176847;27;1342;-46
2023/05/17 04:07:19;;;;;;;;;;;;;;;;;;5157745;27;1590;-52
2023/05/17 04:09:46;;;;;;;;;;;;;;;;;;5157990;27;2237;-59
2023/05/17 04:12:15;;;;;;;;;;;;;;;;;;5176642;27;1913;-51
2023/05/17 04:14:43;;;;;;;;;;;;;;;;;;5157563;27;2208;-48
2023/05/17 04:17:10;;;;;;;;;;;;;;;;;;5176290;27;1776;-50
2023/05/17 04:19:38;;;;;;;;;;;;;;;;;;5176335;27;1924;-53
2023/05/17 04:22:06;;;;;;;;;;;;;;;;;;5157574;27;1725;-53
2023/05/17 04:24:33;;;;;;;;;;;;;;;;;;5157460;27;1891;-48
2023/05/17 04:27:03;;;;;;;;;;;;;;;;;;5176199;27;1752;-63
2023/05/17 04:29:33;;;;;;;;;;;;;;;;;;5157270;27;1836;-48
2023/05/17 04:32:00;;;;;;;;;;;;;;;;;;5157150;27;2217;-50
2023/05/17 04:34:28;;;;;;;;;;;;;;;;;;5157123;27;1729;-48
2023/05/17 04:36:55;;;;;;;;;;;;;;;;;;5176218;27;1766;-50
2023/05/17 04:39:23;;;;;;;;;;;;;;;;;;5157458;27;1575;-48
2023/05/17 04:41:50;;;;;;;;;;;;;;;;;;5157396;27;1980;-49
2023/05/17 04:44:19;;;;;;;;;;;;;;;;;;5157107;27;2025;-52
2023/05/17 04:46:48;;;;;;;;;;;;;;;;;;5156880;27;2152;-48
2023/05/17 04:49:15;;;;;;;;;;;;;;;;;;5157039;27;2320;-49
2023/05/17 04:51:42;;;;;;;;;;;;;;;;;;5157099;27;1747;-49
2023/05/17 04:54:10;;;;;;;;;;;;;;;;;;5156984;27;1929;-49
2023/05/17 04:56:38;;;;;;;;;;;;;;;;;;5156525;27;1766;-51
2023/05/17 04:59:12;;;;;;;;;;;;;;;;;;5135963;27;2014;-49
2023/05/17 05:01:39;;;;;;;;;;;;;;;;;;5154825;27;2010;-49
2023/05/17 05:04:07;;;;;;;;;;;;;;;;;;5119074;27;1233;-47
2023/05/17 05:06:39;;;;;;;;;;;;;;;;;;5154535;27;1968;-50
2023/05/17 05:09:07;;;;;;;;;;;;;;;;;;5136069;27;1877;-50
2023/05/17 05:11:36;;;;;;;;;;;;;;;;;;5136044;27;1830;-48
2023/05/17 05:14:04;;;;;;;;;;;;;;;;;;5135766;27;1981;-62
2023/05/17 05:16:32;;;;;;;;;;;;;;;;;;5135982;27;1710;-48
2023/05/17 05:19:00;;;;;;;;;;;;;;;;;;5154556;27;1955;-47
2023/05/17 05:21:29;;;;;;;;;;;;;;;;;;5136006;27;2315;-47
2023/05/17 05:23:58;;;;;;;;;;;;;;;;;;5135844;27;1964;-48
2023/05/17 05:26:25;;;;;;;;;;;;;;;;;;5135379;27;1696;-50
2023/05/17 05:28:55;;;;;;;;;;;;;;;;;;5135824;27;1777;-51
2023/05/17 05:31:23;;;;;;;;;;;;;;;;;;5135470;27;1594;-48
2023/05/17 05:33:52;;;;;;;;;;;;;;;;;;5135504;27;1911;-48
2023/05/17 05:36:20;;;;;;;;;;;;;;;;;;5135526;27;2259;-47
2023/05/17 05:38:47;;;;;;;;;;;;;;;;;;5153915;27;1852;-49
2023/05/17 05:41:15;;;;;;;;;;;;;;;;;;5135276;27;1635;-57
2023/05/17 05:43:42;;;;;;;;;;;;;;;;;;5135232;27;1937;-49
2023/05/17 05:46:10;;;;;;;;;;;;;;;;;;5134972;27;2010;-59
2023/05/17 05:48:40;;;;;;;;;;;;;;;;;;5134997;27;1810;-47
2023/05/17 05:51:08;;;;;;;;;;;;;;;;;;5133884;27;1775;-49
2023/05/17 05:53:38;;;;;;;;;;;;;;;;;;5134054;27;1957;-63
2023/05/17 05:56:08;;;;;;;;;;;;;;;;;;5134932;27;1656;-50
2023/05/17 05:58:37;;;;;;;;;;;;;;;;;;5144958;27;1762;-47
2023/05/17 06:01:05;;;;;;;;;;;;;;;;;;5155770;27;1607;-48
2023/05/17 06:03:33;;;;;;;;;;;;;;;;;;5174619;27;1902;-50
2023/05/17 06:06:00;;;;;;;;;;;;;;;;;;5174503;27;1617;-48
2023/05/17 06:08:27;;;;;;;;;;;;;;;;;;5174238;27;1984;-47
2023/05/17 06:10:54;;;;;;;;;;;;;;;;;;5174181;27;1972;-49
2023/05/17 06:13:21;;;;;;;;;;;;;;;;;;5174185;27;1937;-47
2023/05/17 06:15:49;;;;;;;;;;;;;;;;;;5174227;27;1728;-48
2023/05/17 06:18:16;;;;;;;;;;;;;;;;;;5174022;27;1693;-47
2023/05/17 06:20:45;;;;;;;;;;;;;;;;;;5173492;27;1947;-48
2023/05/17 06:23:12;;;;;;;;;;;;;;;;;;5174255;27;1696;-49
2023/05/17 06:25:39;;;;;;;;;;;;;;;;;;5174159;27;1813;-57
2023/05/17 06:28:08;;;;;;;;;;;;;;;;;;5174048;27;1766;-48
2023/05/17 06:30:35;;;;;;;;;;;;;;;;;;5173977;27;1557;-47
2023/05/17 06:33:05;;;;;;;;;;;;;;;;;;5173775;27;2153;-48
2023/05/17 06:35:33;;;;;;;;;;;;;;;;;;5173859;27;1613;-52
2023/05/17 06:38:13;;;;;;;;;;;;;;;;;;5173873;27;1548;-56
2023/05/17 06:40:41;;;;;;;;;;;;;;;;;;5173923;27;1982;-50
2023/05/17 06:43:08;;;;;;;;;;;;;;;;;;5173709;27;1591;-47
2023/05/17 06:45:35;;;;;;;;;;;;;;;;;;5173865;27;1652;-53
2023/05/17 06:48:02;;;;;;;;;;;;;;;;;;5174103;27;1687;-51
2023/05/17 06:50:30;;;;;;;;;;;;;;;;;;5173664;27;1452;-60
2023/05/17 06:52:58;;;;;;;;;;;;;;;;;;5173734;27;1958;-55
2023/05/17 06:55:25;;;;;;;;;;;;;;;;;;5173750;27;1603;-51
2023/05/17 06:57:53;;;;;;;;;;;;;;;;;;5173478;27;1313;-50
2023/05/17 07:00:21;;;;;;;;;;;;;;;;;;5173197;27;2258;-49
2023/05/17 07:02:48;;;;;;;;;;;;;;;;;;5138170;27;1609;-49
2023/05/17 07:05:16;;;;;;;;;;;;;;;;;;5173588;27;1384;-49
2023/05/17 07:07:43;;;;;;;;;;;;;;;;;;5173419;27;2076;-47
2023/05/17 07:10:10;;;;;;;;;;;;;;;;;;5173611;27;1865;-51
2023/05/17 07:12:39;;;;;;;;;;;;;;;;;;5173381;27;1901;-49
2023/05/17 07:15:06;;;;;;;;;;;;;;;;;;5173754;27;1800;-48
2023/05/17 07:17:33;;;;;;;;;;;;;;;;;;5173932;27;2274;-49
2023/05/17 07:20:00;;;;;;;;;;;;;;;;;;5173711;27;1990;-64
2023/05/17 07:22:28;;;;;;;;;;;;;;;;;;5173206;27;1703;-47
2023/05/17 07:24:55;;;;;;;;;;;;;;;;;;5173309;27;1916;-65
2023/05/17 07:27:22;;;;;;;;;;;;;;;;;;5173105;27;1768;-50
2023/05/17 07:29:50;;;;;;;;;;;;;;;;;;5173318;27;2063;-50
2023/05/17 07:32:18;;;;;;;;;;;;;;;;;;5175188;27;1544;-48
2023/05/17 07:34:45;;;;;;;;;;;;;;;;;;5177157;27;1990;-47
2023/05/17 07:37:13;;;;;;;;;;;;;;;;;;5177304;27;1683;-46
2023/05/17 07:39:40;;;;;;;;;;;;;;;;;;5177220;27;1659;-48
2023/05/17 07:42:07;;;;;;;;;;;;;;;;;;5177242;27;1310;-49
2023/05/17 07:44:34;;;;;;;;;;;;;;;;;;5177431;27;1879;-49
2023/05/17 07:47:01;;;;;;;;;;;;;;;;;;5177304;27;2337;-63
2023/05/17 07:49:29;;;;;;;;;;;;;;;;;;5176993;27;1416;-46
2023/05/17 07:51:56;;;;;;;;;;;;;;;;;;5177008;27;2276;-48
2023/05/17 07:54:26;;;;;;;;;;;;;;;;;;5176636;27;2104;-56
2023/05/17 07:56:54;;;;;;;;;;;;;;;;;;5174622;27;2138;-50
2023/05/17 07:59:22;;;;;;;;;;;;;;;;;;5155953;27;1648;-49
2023/05/17 08:01:49;;;;;;;;;;;;;;;;;;5155658;27;1940;-48
2023/05/17 08:04:18;;;;;;;;;;;;;;;;;;5156062;27;1976;-64
2023/05/17 08:06:47;;;;;;;;;;;;;;;;;;5155813;27;1429;-48
2023/05/17 08:09:15;;;;;;;;;;;;;;;;;;5155854;27;1904;-48
2023/05/17 08:11:44;;;;;;;;;;;;;;;;;;5155705;27;1467;-52
2023/05/17 08:14:13;;;;;;;;;;;;;;;;;;5155921;27;2089;-46
2023/05/17 08:16:41;;;;;;;;;;;;;;;;;;5156021;27;1270;-47
2023/05/17 08:19:11;;;;;;;;;;;;;;;;;;5155899;27;1869;-51
2023/05/17 08:21:39;;;;;;;;;;;;;;;;;;5155603;27;1740;-48
2023/05/17 08:24:07;;;;;;;;;;;;;;;;;;5155880;27;2099;-50
2023/05/17 08:26:34;;;;;;;;;;;;;;;;;;5155345;27;2030;-49
2023/05/17 08:29:01;;;;;;;;;;;;;;;;;;5155518;27;1716;-51
2023/05/17 08:31:31;;;;;;;;;;;;;;;;;;5155473;27;1491;-50
2023/05/17 08:33:58;;;;;;;;;;;;;;;;;;5154774;27;1913;-58
2023/05/17 08:36:26;;;;;;;;;;;;;;;;;;5155245;27;1857;-51
2023/05/17 08:38:54;;;;;;;;;;;;;;;;;;5136673;27;1959;-61
2023/05/17 08:41:21;;;;;;;;;;;;;;;;;;5155629;27;1702;-58
2023/05/17 08:43:49;;;;;;;;;;;;;;;;;;5154775;27;1615;-46
2023/05/17 08:46:20;;;;;;;;;;;;;;;;;;5155250;27;1882;-56
2023/05/17 08:48:51;;;;;;;;;;;;;;;;;;5154983;27;1668;-48
2023/05/17 08:51:19;;;;;;;;;;;;;;;;;;5155400;27;2014;-50
2023/05/17 08:53:49;;;;;;;;;;;;;;;;;;5154772;27;2060;-60
2023/05/17 08:56:19;;;;;;;;;;;;;;;;;;5154798;27;1808;-54
2023/05/17 08:58:47;;;;;;;;;;;;;;;;;;5173677;27;1970;-48
2023/05/17 09:01:23;;;;;;;;;;;;;;;;;;5175677;27;1639;-50
2023/05/17 09:03:52;;;;;;;;;;;;;;;;;;5175545;27;1862;-50
2023/05/17 09:06:21;;;;;;;;;;;;;;;;;;5175407;27;2115;-57
2023/05/17 09:08:53;;;;;;;;;;;;;;;;;;5175576;27;1674;-46
2023/05/17 09:11:25;;;;;;;;;;;;;;;;;;5175431;27;1974;-52
2023/05/17 09:13:56;;;;;;;;;;;;;;;;;;5175658;27;1913;-47
2023/05/17 09:16:25;;;;;;;;;;;;;;;;;;5175561;27;1594;-52
2023/05/17 09:18:58;;;;;;;;;;;;;;;;;;5175246;27;1830;-48
2023/05/17 09:21:26;;;;;;;;;;;;;;;;;;5175242;27;2004;-48
2023/05/17 09:23:54;;;;;;;;;;;;;;;;;;5175100;27;1949;-47
2023/05/17 09:26:39;;;;;;;;;;;;;;;;;;5175174;27;1796;-49
2023/05/17 09:29:10;;;;;;;;;;;;;;;;;;5175012;27;2187;-65
2023/05/17 09:31:38;;;;;;;;;;;;;;;;;;5175091;27;2088;-47
2023/05/17 09:34:06;;;;;;;;;;;;;;;;;;5175441;27;1914;-46
2023/05/17 09:36:36;;;;;;;;;;;;;;;;;;5174589;27;1980;-49
2023/05/17 09:39:10;;;;;;;;;;;;;;;;;;5174906;27;1509;-50
2023/05/17 09:41:45;;;;;;;;;;;;;;;;;;5174763;27;1372;-65
2023/05/17 09:44:14;;;;;;;;;;;;;;;;;;5175031;27;1503;-50
2023/05/17 09:46:46;;;;;;;;;;;;;;;;;;5174938;27;2148;-49
2023/05/17 09:49:14;;;;;;;;;;;;;;;;;;5174727;27;1721;-57
2023/05/17 09:51:42;;;;;;;;;;;;;;;;;;5174848;27;2176;-54
2023/05/17 09:54:09;;;;;;;;;;;;;;;;;;5173772;27;1968;-48
2023/05/17 09:56:37;;;;;;;;;;;;;;;;;;5174795;27;1844;-49
2023/05/17 09:59:10;;;;;;;;;;;;;;;;;;5153527;27;1662;-50
2023/05/17 10:01:39;;;;;;;;;;;;;;;;;;5153369;27;1945;-48
2023/05/17 10:04:08;;;;;;;;;;;;;;;;;;5153634;27;1798;-49
2023/05/17 10:06:43;;;;;;;;;;;;;;;;;;5153449;27;1833;-48
2023/05/17 10:09:17;;;;;;;;;;;;;;;;;;5153535;27;1451;-48
2023/05/17 10:11:45;;;;;;;;;;;;;;;;;;5153410;27;1946;-48
2023/05/17 10:14:22;;;;;;;;;;;;;;;;;;5153124;27;1910;-49
2023/05/17 10:16:50;;;;;;;;;;;;;;;;;;5153372;27;1737;-47
2023/05/17 10:19:19;;;;;;;;;;;;;;;;;;5159303;27;1817;-51
2023/05/17 10:21:47;;;;;;;;;;;;;;;;;;5153594;27;1828;-62
2023/05/17 10:24:15;;;;;;;;;;;;;;;;;;5153262;27;1923;-47
2023/05/17 10:26:42;;;;;;;;;;;;;;;;;;5153286;27;1800;-47
2023/05/17 10:29:09;;;;;;;;;;;;;;;;;;5153103;27;1450;-49
2023/05/17 10:31:37;;;;;;;;;;;;;;;;;;5152942;27;1725;-50
2023/05/17 10:34:07;;;;;;;;;;;;;;;;;;5152687;27;1909;-49
2023/05/17 10:36:35;;;;;;;;;;;;;;;;;;5152942;27;1603;-57
2023/05/17 10:39:06;;;;;;;;;;;;;;;;;;5152954;27;1633;-48
2023/05/17 10:41:37;;;;;;;;;;;;;;;;;;5153062;27;1878;-50
2023/05/17 10:44:06;;;;;;;;;;;;;;;;;;5152887;27;1825;-52
2023/05/17 10:46:35;;;;;;;;;;;;;;;;;;5152982;27;1684;-50
2023/05/17 10:49:02;;;;;;;;;;;;;;;;;;5152906;27;1547;-46
2023/05/17 10:51:35;;;;;;;;;;;;;;;;;;5152674;27;1922;-49
2023/05/17 10:54:12;;;;;;;;;;;;;;;;;;5152926;27;2038;-47
2023/05/17 10:56:41;;;;;;;;;;;;;;;;;;5152636;27;2157;-49
2023/05/17 10:59:22;;;;;;;;;;;;;;;;;;5152846;27;1485;-48
2023/05/17 11:01:53;;;;;;;;;;;;;;;;;;5152713;27;2134;-47
2023/05/17 11:04:24;;;;;;;;;;;;;;;;;;5152944;27;2237;-47
2023/05/17 11:06:53;;;;;;;;;;;;;;;;;;5155660;27;2312;-47
2023/05/17 11:09:21;;;;;;;;;;;;;;;;;;5157329;27;2410;-53
2023/05/17 11:12:05;;;;;;;;;;;;;;;;;;5157238;27;1955;-50
2023/05/17 11:14:53;;;;;;;;;;;;;;;;;;5156592;27;1959;-50
2023/05/17 11:17:23;;;;;;;;;;;;;;;;;;5156946;27;1682;-48
2023/05/17 11:19:56;;;;;;;;;;;;;;;;;;5156856;27;2059;-49
2023/05/17 11:22:24;;;;;;;;;;;;;;;;;;5138140;27;1530;-49
2023/05/17 11:24:54;;;;;;;;;;;;;;;;;;5156699;27;2119;-48
2023/05/17 11:27:26;;;;;;;;;;;;;;;;;;5157036;27;1878;-47
2023/05/17 11:29:59;;;;;;;;;;;;;;;;;;5156782;27;1441;-47
2023/05/17 11:32:30;;;;;;;;;;;;;;;;;;5156679;27;2358;-50
2023/05/17 11:34:59;;;;;;;;;;;;;;;;;;5156288;27;1976;-49
2023/05/17 11:37:26;;;;;;;;;;;;;;;;;;5156299;27;1859;-59
2023/05/17 11:40:07;;;;;;;;;;;;;;;;;;5156299;27;2286;-47
2023/05/17 11:42:38;;;;;;;;;;;;;;;;;;5156085;27;1903;-49
2023/05/17 11:45:06;;;;;;;;;;;;;;;;;;5156341;27;1851;-49
2023/05/17 11:47:37;;;;;;;;;;;;;;;;;;5156145;27;2145;-50
2023/05/17 11:50:05;;;;;;;;;;;;;;;;;;5156137;27;1946;-47
2023/05/17 11:52:33;;;;;;;;;;;;;;;;;;5156354;27;1602;-49
2023/05/17 11:55:00;;;;;;;;;;;;;;;;;;5156188;27;2029;-49
2023/05/17 11:57:31;;;;;;;;;;;;;;;;;;5163596;27;1905;-52
2023/05/17 11:59:59;;;;;;;;;;;;;;;;;;5176770;27;1706;-46
2023/05/17 12:02:27;;;;;;;;;;;;;;;;;;5176865;27;2110;-55
2023/05/17 12:04:55;;;;;;;;;;;;;;;;;;5176904;27;2096;-56
2023/05/17 12:07:24;;;;;;;;;;;;;;;;;;5176968;27;1991;-53
2023/05/17 12:09:51;;;;;;;;;;;;;;;;;;5176997;27;1287;-48
2023/05/17 12:12:21;;;;;;;;;;;;;;;;;;5176784;27;1950;-51
2023/05/17 12:14:49;;;;;;;;;;;;;;;;;;5157713;27;1910;-51
2023/05/17 12:17:27;;;;;;;;;;;;;;;;;;5175947;27;1582;-52
2023/05/17 12:19:54;;;;;;;;;;;;;;;;;;5176598;27;1680;-52
2023/05/17 12:22:21;;;;;;;;;;;;;;;;;;5155892;27;2083;-48
2023/05/17 12:24:48;;;;;;;;;;;;;;;;;;5155308;27;1898;-56
2023/05/17 12:27:23;;;;;;;;;;;;;;;;;;5155216;27;1246;-56
2023/05/17 12:29:51;;;;;;;;;;;;;;;;;;5165939;27;1566;-52
2023/05/17 12:32:19;;;;;;;;;;;;;;;;;;5176404;27;2032;-51
2023/05/17 12:34:48;;;;;;;;;;;;;;;;;;5176125;27;2122;-51
2023/05/17 12:37:15;;;;;;;;;;;;;;;;;;5176254;27;1695;-56
2023/05/17 12:39:43;;;;;;;;;;;;;;;;;;5176060;27;1411;-53
2023/05/17 12:42:10;;;;;;;;;;;;;;;;;;5176001;27;1885;-53
2023/05/17 12:44:38;;;;;;;;;;;;;;;;;;5175960;27;1861;-58
2023/05/17 12:47:05;;;;;;;;;;;;;;;;;;5175940;27;1858;-55
2023/05/17 12:49:36;;;;;;;;;;;;;;;;;;5175897;27;2126;-56
2023/05/17 12:52:04;;;;;;;;;;;;;;;;;;5175633;27;1974;-53
2023/05/17 12:54:31;;;;;;;;;;;;;;;;;;5175502;27;1973;-55
2023/05/17 12:57:08;;;;;;;;;;;;;;;;;;5175717;27;1355;-51
2023/05/17 12:59:47;;;;;;;;;;;;;;;;;;5175732;27;1596;-55
2023/05/17 13:02:16;;;;;;;;;;;;;;;;;;5175664;27;1980;-59
2023/05/17 13:04:43;;;;;;;;;;;;;;;;;;5175504;27;2034;-57
2023/05/17 13:07:11;;;;;;;;;;;;;;;;;;5175502;27;1939;-59
2023/05/17 13:09:48;;;;;;;;;;;;;;;;;;5175581;27;1999;-59
2023/05/17 13:12:20;;;;;;;;;;;;;;;;;;5175520;27;1436;-55
2023/05/17 13:14:50;;;;;;;;;;;;;;;;;;5175247;27;1909;-57
2023/05/17 13:17:25;;;;;;;;;;;;;;;;;;5156508;27;2361;-57
2023/05/17 13:19:55;;;;;;;;;;;;;;;;;;5175236;27;1713;-62
2023/05/17 13:22:24;;;;;;;;;;;;;;;;;;5154061;27;1784;-58
2023/05/17 13:24:51;;;;;;;;;;;;;;;;;;5154502;27;1851;-51
2023/05/17 13:27:19;;;;;;;;;;;;;;;;;;5154287;27;1690;-51
2023/05/17 13:29:46;;;;;;;;;;;;;;;;;;5157598;27;2062;-49
2023/05/17 13:32:14;;;;;;;;;;;;;;;;;;5175214;27;1948;-54
2023/05/17 13:34:41;;;;;;;;;;;;;;;;;;5173905;27;1921;-56
2023/05/17 13:37:09;;;;;;;;;;;;;;;;;;5175072;27;1965;-52
2023/05/17 13:39:39;;;;;;;;;;;;;;;;;;5175003;27;2096;-55
2023/05/17 13:42:06;;;;;;;;;;;;;;;;;;5174863;27;2194;-55
2023/05/17 13:44:33;;;;;;;;;;;;;;;;;;5174401;27;2188;-58
2023/05/17 13:47:01;;;;;;;;;;;;;;;;;;5174885;27;1880;-58
2023/05/17 13:49:28;;;;;;;;;;;;;;;;;;5174868;27;1733;-60
2023/05/17 13:51:56;;;;;;;;;;;;;;;;;;5174828;27;1590;-56
2023/05/17 13:54:23;;;;;;;;;;;;;;;;;;5174654;27;1976;-53
2023/05/17 13:56:51;;;;;;;;;;;;;;;;;;5174267;27;2122;-56
2023/05/17 13:59:18;;;;;;;;;;;;;;;;;;5174446;27;2162;-60
2023/05/17 14:01:45;;;;;;;;;;;;;;;;;;5174771;27;1550;-58
2023/05/17 14:04:13;;;;;;;;;;;;;;;;;;5155730;27;2082;-60
2023/05/17 14:06:40;;;;;;;;;;;;;;;;;;5174447;27;2152;-64
2023/05/17 14:09:09;;;;;;;;;;;;;;;;;;5174621;27;1936;-61
2023/05/17 14:11:36;;;;;;;;;;;;;;;;;;5174352;27;1739;-51
2023/05/17 14:14:03;;;;;;;;;;;;;;;;;;5174292;27;1582;-61
2023/05/17 14:16:30;;;;;;;;;;;;;;;;;;5174356;27;1972;-57
2023/05/17 14:18:57;;;;;;;;;;;;;;;;;;5174106;27;1678;-60
2023/05/17 14:21:27;;;;;;;;;;;;;;;;;;5174197;27;1680;-53
2023/05/17 14:23:55;;;;;;;;;;;;;;;;;;5173805;27;2144;-60
2023/05/17 14:26:22;;;;;;;;;;;;;;;;;;5172871;27;1515;-52
2023/05/17 14:28:49;;;;;;;;;;;;;;;;;;5173953;27;1549;-56
2023/05/17 14:31:17;;;;;;;;;;;;;;;;;;5173953;27;1555;-50
2023/05/17 14:33:44;;;;;;;;;;;;;;;;;;5173965;27;1530;-57
2023/05/17 14:36:11;;;;;;;;;;;;;;;;;;5173601;27;1967;-55
2023/05/17 14:38:39;;;;;;;;;;;;;;;;;;5173714;27;1701;-56
2023/05/17 14:41:07;;;;;;;;;;;;;;;;;;5173566;27;1439;-51
2023/05/17 14:43:34;;;;;;;;;;;;;;;;;;5155190;27;2140;-59
2023/05/17 14:46:01;;;;;;;;;;;;;;;;;;5173900;27;1735;-62
2023/05/17 14:48:29;;;;;;;;;;;;;;;;;;5173451;27;1844;-60
2023/05/17 14:50:57;;;;;;;;;;;;;;;;;;5173656;27;2017;-58
2023/05/17 14:53:28;;;;;;;;;;;;;;;;;;5173515;27;1696;-56
2023/05/17 14:55:56;;;;;;;;;;;;;;;;;;5173568;27;2074;-50
2023/05/17 14:58:23;;;;;;;;;;;;;;;;;;5173627;27;1961;-52
2023/05/17 15:00:56;;;;;;;;;;;;;;;;;;5173706;27;2009;-55
2023/05/17 15:03:31;;;;;;;;;;;;;;;;;;5173341;27;1476;-56
2023/05/17 15:05:59;;;;;;;;;;;;;;;;;;5173831;27;2028;-60
2023/05/17 15:08:29;;;;;;;;;;;;;;;;;;5173666;27;1850;-60
2023/05/17 15:10:56;;;;;;;;;;;;;;;;;;5173650;27;1552;-59
2023/05/17 15:13:24;;;;;;;;;;;;;;;;;;5173655;27;2198;-54
2023/05/17 15:15:51;;;;;;;;;;;;;;;;;;5173673;27;1918;-55
2023/05/17 15:18:19;;;;;;;;;;;;;;;;;;5173460;27;1973;-55
2023/05/17 15:20:46;;;;;;;;;;;;;;;;;;5173176;27;1974;-54
2023/05/17 15:23:13;;;;;;;;;;;;;;;;;;5173322;27;1769;-54
2023/05/17 15:25:40;;;;;;;;;;;;;;;;;;5172725;27;2085;-58
2023/05/17 15:28:08;;;;;;;;;;;;;;;;;;5173558;27;2248;-53
2023/05/17 15:30:35;;;;;;;;;;;;;;;;;;5173430;27;1948;-60
2023/05/17 15:33:02;;;;;;;;;;;;;;;;;;5173108;27;1924;-61
2023/05/17 15:35:29;;;;;;;;;;;;;;;;;;5173358;27;1952;-59
2023/05/17 15:37:58;;;;;;;;;;;;;;;;;;5154483;27;2071;-61
2023/05/17 15:40:26;;;;;;;;;;;;;;;;;;5173430;27;1943;-51
2023/05/17 15:42:53;;;;;;;;;;;;;;;;;;5173122;27;1882;-50
2023/05/17 15:45:20;;;;;;;;;;;;;;;;;;5173150;27;1481;-57
2023/05/17 15:47:48;;;;;;;;;;;;;;;;;;5173069;27;1436;-52
2023/05/17 15:50:15;;;;;;;;;;;;;;;;;;5173011;27;2035;-57
2023/05/17 15:52:42;;;;;;;;;;;;;;;;;;5174007;27;1645;-58
2023/05/17 15:55:10;;;;;;;;;;;;;;;;;;5176701;27;1999;-53
2023/05/17 15:57:38;;;;;;;;;;;;;;;;;;5177007;27;1913;-57
2023/05/17 16:00:05;;;;;;;;;;;;;;;;;;5176767;27;1084;-54
2023/05/17 16:02:33;;;;;;;;;;;;;;;;;;5176877;27;2009;-61
2023/05/17 16:05:01;;;;;;;;;;;;;;;;;;5176685;27;1863;-64
2023/05/17 16:07:30;;;;;;;;;;;;;;;;;;5176816;27;2129;-57
2023/05/17 16:09:57;;;;;;;;;;;;;;;;;;5176761;27;2017;-50
2023/05/17 16:12:24;;;;;;;;;;;;;;;;;;5157743;27;2256;-59
2023/05/17 16:14:51;;;;;;;;;;;;;;;;;;5176814;27;1999;-63
2023/05/17 16:17:18;;;;;;;;;;;;;;;;;;5176727;27;1955;-64
2023/05/17 16:19:45;;;;;;;;;;;;;;;;;;5176513;27;1947;-55
2023/05/17 16:22:13;;;;;;;;;;;;;;;;;;5176511;27;2123;-58
2023/05/17 16:24:40;;;;;;;;;;;;;;;;;;5176621;27;1907;-61
2023/05/17 16:27:08;;;;;;;;;;;;;;;;;;5176625;27;1453;-59
2023/05/17 16:29:38;;;;;;;;;;;;;;;;;;5176610;27;1832;-55
2023/05/17 16:32:06;;;;;;;;;;;;;;;;;;5176085;27;2140;-60
2023/05/17 16:34:34;;;;;;;;;;;;;;;;;;5176501;27;1677;-59
2023/05/17 16:37:03;;;;;;;;;;;;;;;;;;5176174;27;1963;-55
2023/05/17 16:39:31;;;;;;;;;;;;;;;;;;5176182;27;1656;-59
2023/05/17 16:41:58;;;;;;;;;;;;;;;;;;5176472;27;2047;-66
2023/05/17 16:44:25;;;;;;;;;;;;;;;;;;5176476;27;1716;-57
2023/05/17 16:46:53;;;;;;;;;;;;;;;;;;5176146;27;1950;-62
2023/05/17 16:49:20;;;;;;;;;;;;;;;;;;5175844;27;1917;-60
2023/05/17 16:51:49;;;;;;;;;;;;;;;;;;5175689;27;1633;-58
2023/05/17 16:54:16;;;;;;;;;;;;;;;;;;5176032;27;2079;-60
2023/05/17 16:56:44;;;;;;;;;;;;;;;;;;5174980;27;2163;-62
2023/05/17 16:59:11;;;;;;;;;;;;;;;;;;5155114;27;1803;-65
2023/05/17 17:01:39;;;;;;;;;;;;;;;;;;5154950;27;1981;-64
2023/05/17 17:04:06;;;;;;;;;;;;;;;;;;5154630;27;1676;-64
2023/05/17 17:06:33;;;;;;;;;;;;;;;;;;5154807;27;1681;-56
2023/05/17 17:09:03;;;;;;;;;;;;;;;;;;5154599;27;1842;-60
2023/05/17 17:11:32;;;;;;;;;;;;;;;;;;5154655;27;1624;-63
2023/05/17 17:14:00;;;;;;;;;;;;;;;;;;5135889;27;2021;-55